createdAt,value
2023-05-09T00:01:08.337Z,99.90
2023-05-09T00:03:38.367Z,99.90
2023-05-09T00:06:07.406Z,99.90
2023-05-09T00:08:38.043Z,99.90
2023-05-09T00:11:06.247Z,99.90
2023-05-09T00:13:34.718Z,99.90
2023-05-09T00:16:03.648Z,99.90
2023-05-09T00:18:31.733Z,99.90
2023-05-09T00:20:59.711Z,99.90
2023-05-09T00:23:27.740Z,99.90
2023-05-09T00:25:57.152Z,99.90
2023-05-09T00:28:25.085Z,99.90
2023-05-09T00:30:53.075Z,99.90
2023-05-09T00:33:21.325Z,99.90
2023-05-09T00:35:49.293Z,99.90
2023-05-09T00:38:17.270Z,99.90
2023-05-09T00:40:45.367Z,99.90
2023-05-09T00:43:14.732Z,99.90
2023-05-09T00:45:42.848Z,99.90
2023-05-09T00:48:10.918Z,99.90
2023-05-09T00:50:39.335Z,99.90
2023-05-09T00:53:08.315Z,99.90
2023-05-09T00:55:36.768Z,99.90
2023-05-09T00:58:05.051Z,99.90
2023-05-09T01:00:34.479Z,99.90
2023-05-09T01:03:02.739Z,99.90
2023-05-09T01:05:38.118Z,99.90
2023-05-09T01:08:11.567Z,99.90
2023-05-09T01:10:45.179Z,99.90
2023-05-09T01:13:20.214Z,99.90
2023-05-09T01:15:55.575Z,99.90
2023-05-09T01:18:31.275Z,99.90
2023-05-09T01:21:04.888Z,99.90
2023-05-09T01:24:12.587Z,99.90
2023-05-09T01:26:46.821Z,99.90
2023-05-09T01:29:35.195Z,99.90
2023-05-09T01:32:05.738Z,99.90
2023-05-09T01:34:35.819Z,99.90
2023-05-09T01:37:05.816Z,99.90
2023-05-09T01:39:35.770Z,99.90
2023-05-09T01:42:05.570Z,99.90
2023-05-09T01:44:38.455Z,99.90
2023-05-09T01:47:08.782Z,99.90
2023-05-09T01:49:38.619Z,99.90
2023-05-09T01:52:09.682Z,99.90
2023-05-09T01:54:41.517Z,99.90
2023-05-09T01:57:10.910Z,99.90
2023-05-09T01:59:41.695Z,99.90
2023-05-09T02:02:09.875Z,99.90
2023-05-09T02:04:38.385Z,99.90
2023-05-09T02:07:07.612Z,99.90
2023-05-09T02:09:35.968Z,99.90
2023-05-09T02:12:07.761Z,99.90
2023-05-09T02:14:35.861Z,99.90
2023-05-09T02:17:07.048Z,99.90
2023-05-09T02:19:35.842Z,99.90
2023-05-09T02:22:04.856Z,99.90
2023-05-09T02:24:34.835Z,99.90
2023-05-09T02:27:04.615Z,99.90
2023-05-09T02:29:39.896Z,99.90
2023-05-09T02:32:12.272Z,99.90
2023-05-09T02:34:42.031Z,99.90
2023-05-09T02:37:11.377Z,99.90
2023-05-09T02:39:39.647Z,99.90
2023-05-09T02:42:09.240Z,99.90
2023-05-09T02:44:37.290Z,99.90
2023-05-09T02:47:06.363Z,99.90
2023-05-09T02:49:35.908Z,99.90
2023-05-09T02:52:03.968Z,99.90
2023-05-09T02:54:31.929Z,99.90
2023-05-09T02:57:00.607Z,99.90
2023-05-09T02:59:28.583Z,99.90
2023-05-09T03:01:57.107Z,99.90
2023-05-09T03:04:26.246Z,99.90
2023-05-09T03:06:55.595Z,99.90
2023-05-09T03:09:23.592Z,99.90
2023-05-09T03:11:51.836Z,99.90
2023-05-09T03:14:19.844Z,99.90
2023-05-09T03:16:47.972Z,99.90
2023-05-09T03:19:16.068Z,99.90
2023-05-09T03:21:44.094Z,99.90
2023-05-09T03:24:13.406Z,99.90
2023-05-09T03:26:41.371Z,99.90
2023-05-09T03:29:09.286Z,99.90
2023-05-09T03:31:37.308Z,99.90
2023-05-09T03:34:05.328Z,99.90
2023-05-09T03:36:33.539Z,99.90
2023-05-09T03:39:01.493Z,99.90
2023-05-09T03:41:30.762Z,99.90
2023-05-09T03:43:58.764Z,99.90
2023-05-09T03:46:26.877Z,99.90
2023-05-09T03:48:54.873Z,99.90
2023-05-09T03:51:22.954Z,99.90
2023-05-09T03:53:51.298Z,99.90
2023-05-09T03:56:19.277Z,99.90
2023-05-09T03:58:48.641Z,99.90
2023-05-09T04:01:16.925Z,99.90
2023-05-09T04:03:45.101Z,99.90
2023-05-09T04:06:13.534Z,99.90
2023-05-09T04:08:41.509Z,99.90
2023-05-09T04:11:12.660Z,99.90
2023-05-09T04:13:40.563Z,99.90
2023-05-09T04:16:09.924Z,99.90
2023-05-09T04:18:40.017Z,99.90
2023-05-09T04:21:08.083Z,99.90
2023-05-09T04:23:36.053Z,99.90
2023-05-09T04:26:04.038Z,99.90
2023-05-09T04:28:32.005Z,99.90
2023-05-09T04:31:00.085Z,99.90
2023-05-09T04:33:30.146Z,99.90
2023-05-09T04:35:58.615Z,99.90
2023-05-09T04:38:26.858Z,99.90
2023-05-09T04:40:54.828Z,99.90
2023-05-09T04:43:22.812Z,99.90
2023-05-09T04:45:53.799Z,99.90
2023-05-09T04:48:21.889Z,99.90
2023-05-09T04:50:51.219Z,99.90
2023-05-09T04:53:19.222Z,99.90
2023-05-09T04:55:47.168Z,99.90
2023-05-09T04:58:15.163Z,99.90
2023-05-09T05:00:43.387Z,99.90
2023-05-09T05:03:11.538Z,99.90
2023-05-09T05:05:40.693Z,99.90
2023-05-09T05:08:10.109Z,99.90
2023-05-09T05:10:38.192Z,99.90
2023-05-09T05:13:06.136Z,99.90
2023-05-09T05:15:34.124Z,99.90
2023-05-09T05:18:02.093Z,99.90
2023-05-09T05:20:30.140Z,99.90
2023-05-09T05:22:58.521Z,99.90
2023-05-09T05:25:28.170Z,99.90
2023-05-09T05:27:56.093Z,99.90
2023-05-09T05:30:27.098Z,99.90
2023-05-09T05:32:55.077Z,99.90
2023-05-09T05:35:23.466Z,99.90
2023-05-09T05:37:51.814Z,99.90
2023-05-09T05:40:19.974Z,99.90
2023-05-09T05:42:49.232Z,99.90
2023-05-09T05:45:17.423Z,99.90
2023-05-09T05:47:45.718Z,99.90
2023-05-09T05:50:14.175Z,99.90
2023-05-09T05:52:42.746Z,99.90
2023-05-09T05:55:11.106Z,99.90
2023-05-09T05:57:39.511Z,99.90
2023-05-09T06:00:11.262Z,99.90
2023-05-09T06:02:39.457Z,99.90
2023-05-09T06:05:08.628Z,99.90
2023-05-09T06:07:36.547Z,99.90
2023-05-09T06:10:05.027Z,99.90
2023-05-09T06:12:33.001Z,99.90
2023-05-09T06:15:00.987Z,99.90
2023-05-09T06:17:30.338Z,99.90
2023-05-09T06:19:58.337Z,99.90
2023-05-09T06:22:26.378Z,99.90
2023-05-09T06:24:54.439Z,99.90
2023-05-09T06:27:22.563Z,99.90
2023-05-09T06:29:52.516Z,99.90
2023-05-09T06:32:21.245Z,99.90
2023-05-09T06:34:50.744Z,99.90
2023-05-09T06:37:18.693Z,99.90
2023-05-09T06:39:46.734Z,99.90
2023-05-09T06:42:14.744Z,99.90
2023-05-09T06:44:43.851Z,99.90
2023-05-09T06:47:12.536Z,99.90
2023-05-09T06:49:40.689Z,99.90
2023-05-09T06:52:10.287Z,99.90
2023-05-09T06:54:39.146Z,99.90
2023-05-09T06:57:07.187Z,99.90
2023-05-09T06:59:35.474Z,99.90
2023-05-09T07:02:03.637Z,99.90
2023-05-09T07:04:31.936Z,99.90
2023-05-09T07:07:00.884Z,99.90
2023-05-09T07:09:30.739Z,99.90
2023-05-09T07:11:59.215Z,99.90
2023-05-09T07:14:27.420Z,99.90
2023-05-09T07:17:05.178Z,99.90
2023-05-09T07:19:42.367Z,99.90
2023-05-09T07:22:10.395Z,99.90
2023-05-09T07:24:39.917Z,99.90
2023-05-09T07:27:08.071Z,99.90
2023-05-09T07:29:36.054Z,99.90
2023-05-09T07:32:04.411Z,99.90
2023-05-09T07:34:32.377Z,99.90
2023-05-09T07:37:00.445Z,99.90
2023-05-09T07:39:28.447Z,99.90
2023-05-09T07:41:57.857Z,99.90
2023-05-09T07:44:26.082Z,99.90
2023-05-09T07:46:55.496Z,99.90
2023-05-09T07:49:23.524Z,99.90
2023-05-09T07:52:03.951Z,99.90
2023-05-09T07:54:32.937Z,99.90
2023-05-09T07:57:02.359Z,99.90
2023-05-09T07:59:30.746Z,99.90
2023-05-09T08:01:58.833Z,99.90
2023-05-09T08:04:27.433Z,99.90
2023-05-09T08:06:55.647Z,99.90
2023-05-09T08:09:23.695Z,99.90
2023-05-09T08:11:51.909Z,99.90
2023-05-09T08:14:21.393Z,99.90
2023-05-09T08:16:49.630Z,99.90
2023-05-09T08:19:17.825Z,99.90
2023-05-09T08:21:45.834Z,99.90
2023-05-09T08:24:13.779Z,99.90
2023-05-09T08:26:41.821Z,99.90
2023-05-09T08:29:09.856Z,99.90
2023-05-09T08:31:39.564Z,95.20
2023-05-09T08:34:07.729Z,77.30
2023-05-09T08:36:35.811Z,64.30
2023-05-09T08:39:03.885Z,55.70
2023-05-09T08:41:36.197Z,51.60
2023-05-09T08:44:05.331Z,48.60
2023-05-09T08:46:38.114Z,46.10
2023-05-09T08:49:08.379Z,45.30
2023-05-09T08:51:38.224Z,44.30
2023-05-09T08:54:06.813Z,46.80
2023-05-09T08:56:36.558Z,44.90
2023-05-09T08:59:06.693Z,44.30
2023-05-09T09:01:35.858Z,41.80
2023-05-09T09:04:07.881Z,40.70
2023-05-09T09:06:37.406Z,40.60
2023-05-09T09:09:08.620Z,39.40
2023-05-09T09:11:38.889Z,41.00
2023-05-09T09:14:13.262Z,40.40
2023-05-09T09:16:44.160Z,38.80
2023-05-09T09:19:17.989Z,41.50
2023-05-09T09:21:47.874Z,40.10
2023-05-09T09:24:16.693Z,38.20
2023-05-09T09:26:48.460Z,38.00
2023-05-09T09:29:17.969Z,37.50
2023-05-09T09:31:47.110Z,39.60
2023-05-09T09:34:24.695Z,38.90
2023-05-09T09:36:52.774Z,38.30
2023-05-09T09:39:21.802Z,37.50
2023-05-09T09:41:50.098Z,37.50
2023-05-09T09:44:19.929Z,37.00
2023-05-09T09:46:51.030Z,38.90
2023-05-09T09:49:21.615Z,38.10
2023-05-09T09:51:53.327Z,39.10
2023-05-09T09:54:21.813Z,38.30
2023-05-09T09:56:50.954Z,39.90
2023-05-09T09:59:20.722Z,38.80
2023-05-09T10:02:00.296Z,38.50
2023-05-09T10:04:32.705Z,38.00
2023-05-09T10:07:03.453Z,37.10
2023-05-09T10:09:31.686Z,37.60
2023-05-09T10:12:03.738Z,37.10
2023-05-09T10:14:35.341Z,35.80
2023-05-09T10:17:06.014Z,36.60
2023-05-09T10:19:39.417Z,36.30
2023-05-09T10:22:11.548Z,37.20
2023-05-09T10:24:44.980Z,37.20
2023-05-09T10:27:16.983Z,37.20
2023-05-09T10:29:50.436Z,36.10
2023-05-09T10:32:24.796Z,36.40
2023-05-09T10:34:58.769Z,37.20
2023-05-09T10:37:27.872Z,35.60
2023-05-09T10:39:57.809Z,37.30
2023-05-09T10:42:26.832Z,36.90
2023-05-09T10:44:55.244Z,35.30
2023-05-09T10:47:24.445Z,35.70
2023-05-09T10:49:54.223Z,37.00
2023-05-09T10:52:23.571Z,37.20
2023-05-09T10:55:01.016Z,35.60
2023-05-09T10:57:30.040Z,36.70
2023-05-09T10:59:59.489Z,38.20
2023-05-09T11:02:31.102Z,37.10
2023-05-09T11:05:17.518Z,35.90
2023-05-09T11:07:45.809Z,38.30
2023-05-09T11:10:17.585Z,38.30
2023-05-09T11:12:58.076Z,38.70
2023-05-09T11:15:27.711Z,39.70
2023-05-09T11:18:07.765Z,41.10
2023-05-09T11:20:43.500Z,42.60
2023-05-09T11:23:11.959Z,46.10
2023-05-09T11:25:41.400Z,48.00
2023-05-09T11:28:09.464Z,48.30
2023-05-09T11:30:40.853Z,49.90
2023-05-09T11:33:23.603Z,48.30
2023-05-09T11:36:18.648Z,52.50
2023-05-09T11:38:47.234Z,51.40
2023-05-09T11:41:16.141Z,51.30
2023-05-09T11:43:45.632Z,51.20
2023-05-09T11:46:13.697Z,52.50
2023-05-09T11:48:42.501Z,53.70
2023-05-09T11:51:18.952Z,51.60
2023-05-09T11:53:50.194Z,50.40
2023-05-09T11:56:18.444Z,49.80
2023-05-09T11:58:47.051Z,52.40
2023-05-09T12:01:15.122Z,53.30
2023-05-09T12:03:45.231Z,54.00
2023-05-09T12:06:18.523Z,52.70
2023-05-09T12:08:47.283Z,53.50
2023-05-09T12:11:16.127Z,49.90
2023-05-09T12:13:48.540Z,52.30
2023-05-09T12:16:21.165Z,51.60
2023-05-09T12:18:51.581Z,50.50
2023-05-09T12:21:22.215Z,52.50
2023-05-09T12:23:52.482Z,52.00
2023-05-09T12:26:22.655Z,53.20
2023-05-09T12:28:51.568Z,54.50
2023-05-09T12:31:19.827Z,52.90
2023-05-09T12:33:47.902Z,52.60
2023-05-09T12:36:16.150Z,52.40
2023-05-09T12:38:55.318Z,52.40
2023-05-09T12:43:57.150Z,52.20
2023-05-09T12:46:25.801Z,53.70
2023-05-09T12:48:53.911Z,51.50
2023-05-09T12:51:22.872Z,51.50
2023-05-09T12:53:51.283Z,52.90
2023-05-09T12:56:22.921Z,53.20
2023-05-09T12:58:51.875Z,51.00
2023-05-09T13:01:20.644Z,53.20
2023-05-09T13:03:53.274Z,53.10
2023-05-09T13:06:21.778Z,52.90
2023-05-09T13:09:00.245Z,54.70
2023-05-09T13:11:30.241Z,54.70
2023-05-09T13:13:58.585Z,54.60
2023-05-09T13:16:26.998Z,53.60
2023-05-09T13:19:01.669Z,53.20
2023-05-09T13:21:29.711Z,56.00
2023-05-09T13:23:57.681Z,53.00
2023-05-09T13:26:27.270Z,51.50
2023-05-09T13:28:56.965Z,52.20
2023-05-09T13:31:25.323Z,55.10
2023-05-09T13:33:53.779Z,54.10
2023-05-09T13:36:21.828Z,56.30
2023-05-09T13:38:49.721Z,54.70
2023-05-09T13:41:20.883Z,54.60
2023-05-09T13:43:48.958Z,53.60
2023-05-09T13:46:18.933Z,54.00
2023-05-09T13:48:47.800Z,53.70
2023-05-09T13:51:17.675Z,54.10
2023-05-09T13:53:45.760Z,56.20
2023-05-09T13:56:13.998Z,53.60
2023-05-09T13:58:41.995Z,53.90
2023-05-09T14:01:09.945Z,54.10
2023-05-09T14:03:42.680Z,54.00
2023-05-09T14:06:12.994Z,54.20
2023-05-09T14:08:42.032Z,54.20
2023-05-09T14:11:09.963Z,53.60
2023-05-09T14:13:37.948Z,56.00
2023-05-09T14:16:06.912Z,55.60
2023-05-09T14:18:35.330Z,55.40
2023-05-09T14:21:04.952Z,55.20
2023-05-09T14:23:32.936Z,54.60
2023-05-09T14:26:00.920Z,53.50
2023-05-09T14:28:28.926Z,54.20
2023-05-09T14:30:57.412Z,55.30
2023-05-09T14:33:26.536Z,56.00
2023-05-09T14:35:54.580Z,56.70
2023-05-09T14:38:24.008Z,57.20
2023-05-09T14:40:51.988Z,55.80
2023-05-09T14:43:19.931Z,54.00
2023-05-09T14:45:47.887Z,55.80
2023-05-09T14:48:16.277Z,56.50
2023-05-09T14:50:44.419Z,56.60
2023-05-09T14:53:12.655Z,57.70
2023-05-09T14:55:42.083Z,55.80
2023-05-09T14:58:10.224Z,55.40
2023-05-09T15:00:38.385Z,55.30
2023-05-09T15:03:06.384Z,56.60
2023-05-09T15:05:34.459Z,55.60
2023-05-09T15:08:02.592Z,56.70
2023-05-09T15:10:30.630Z,56.40
2023-05-09T15:13:00.058Z,55.80
2023-05-09T15:15:28.447Z,56.00
2023-05-09T15:17:56.473Z,55.80
2023-05-09T15:20:24.494Z,56.60
2023-05-09T15:22:52.567Z,58.50
2023-05-09T15:25:21.862Z,55.80
2023-05-09T15:27:50.483Z,57.20
2023-05-09T15:30:19.870Z,56.40
2023-05-09T15:32:47.942Z,56.10
2023-05-09T15:35:17.190Z,56.90
2023-05-09T15:37:45.417Z,57.50
2023-05-09T15:40:13.909Z,59.20
2023-05-09T15:49:12.816Z,58.30
2023-05-09T15:51:40.672Z,58.30
2023-05-09T15:54:08.680Z,57.60
2023-05-09T15:56:36.593Z,57.80
2023-05-09T15:59:04.309Z,57.40
2023-05-09T16:01:34.589Z,58.10
2023-05-09T16:04:03.199Z,59.00
2023-05-09T16:06:33.606Z,57.50
2023-05-09T16:09:02.255Z,57.70
2023-05-09T16:11:29.931Z,58.20
2023-05-09T16:13:57.923Z,58.10
2023-05-09T16:16:25.858Z,59.00
2023-05-09T16:18:53.633Z,59.00
2023-05-09T16:21:21.617Z,60.00
2023-05-09T16:23:50.673Z,59.30
2023-05-09T16:26:18.470Z,59.20
2023-05-09T16:28:46.276Z,59.90
2023-05-09T16:31:14.052Z,59.10
2023-05-09T16:33:41.736Z,60.30
2023-05-09T16:36:10.037Z,60.80
2023-05-09T16:38:37.798Z,61.50
2023-05-09T16:41:06.900Z,61.70
2023-05-09T16:43:34.649Z,63.30
2023-05-09T16:46:02.402Z,61.90
2023-05-09T16:48:30.286Z,60.20
2023-05-09T16:50:58.003Z,60.50
2023-05-09T16:53:27.728Z,61.30
2023-05-09T16:55:55.801Z,62.20
2023-05-09T16:58:25.219Z,63.60
2023-05-09T17:00:53.345Z,61.10
2023-05-09T17:03:23.901Z,62.50
2023-05-09T17:05:51.653Z,62.60
2023-05-09T17:08:19.763Z,63.40
2023-05-09T17:10:47.632Z,62.60
2023-05-09T17:13:15.407Z,62.90
2023-05-09T17:15:44.897Z,65.20
2023-05-09T17:18:17.060Z,63.80
2023-05-09T17:20:47.230Z,64.70
2023-05-09T17:23:15.047Z,64.50
2023-05-09T17:25:43.376Z,64.80
2023-05-09T17:28:11.596Z,65.30
2023-05-09T17:30:40.500Z,65.00
2023-05-09T17:33:09.616Z,66.40
2023-05-09T17:35:38.171Z,66.00
2023-05-09T17:38:06.326Z,66.50
2023-05-09T17:40:34.383Z,67.60
2023-05-09T17:43:02.628Z,67.70
2023-05-09T17:45:30.495Z,68.10
2023-05-09T17:47:59.898Z,68.20
2023-05-09T17:50:29.292Z,69.90
2023-05-09T17:52:57.204Z,68.30
2023-05-09T17:55:24.930Z,70.50
2023-05-09T17:57:53.111Z,69.60
2023-05-09T18:00:21.210Z,71.70
2023-05-09T18:02:51.083Z,71.50
2023-05-09T18:05:19.202Z,71.60
2023-05-09T18:07:48.397Z,72.30
2023-05-09T18:10:16.343Z,72.30
2023-05-09T18:12:45.254Z,71.70
2023-05-09T18:15:13.156Z,72.20
2023-05-09T18:17:41.180Z,72.10
2023-05-09T18:20:09.854Z,72.10
2023-05-09T18:22:37.996Z,72.10
2023-05-09T18:25:07.982Z,71.90
2023-05-09T18:27:35.805Z,73.00
2023-05-09T18:30:03.830Z,73.60
2023-05-09T18:32:32.393Z,73.30
2023-05-09T18:35:00.356Z,74.60
2023-05-09T18:37:28.123Z,74.30
2023-05-09T18:40:17.408Z,76.20
2023-05-09T18:42:49.418Z,78.80
2023-05-09T18:45:17.525Z,79.20
2023-05-09T18:47:45.370Z,79.90
2023-05-09T18:50:14.648Z,81.20
2023-05-09T18:52:44.557Z,86.50
2023-05-09T18:55:13.134Z,88.40
2023-05-09T18:57:42.845Z,89.40
2023-05-09T19:00:24.699Z,90.00
2023-05-09T19:02:54.031Z,90.80
2023-05-09T19:05:22.125Z,90.70
2023-05-09T19:10:56.589Z,91.70
2023-05-09T19:13:26.121Z,91.80
2023-05-09T19:19:01.016Z,92.00
2023-05-09T19:21:31.303Z,92.80
2023-05-09T19:30:46.857Z,92.90
2023-05-09T19:33:16.392Z,92.50
2023-05-09T19:35:45.162Z,92.80
2023-05-09T19:38:13.299Z,93.50
2023-05-09T19:40:41.369Z,92.70
2023-05-09T19:43:09.318Z,92.90
2023-05-09T19:45:37.338Z,93.90
2023-05-09T19:48:08.500Z,94.10
2023-05-09T19:50:44.003Z,94.60
2023-05-09T19:53:12.243Z,94.40
2023-05-09T19:55:40.116Z,95.50
2023-05-09T19:58:08.075Z,96.40
2023-05-09T20:00:39.051Z,96.60
2023-05-09T20:03:08.276Z,94.90
2023-05-09T20:05:38.840Z,95.90
2023-05-09T20:08:06.708Z,95.80
2023-05-09T20:10:40.220Z,96.50
2023-05-09T20:13:08.415Z,98.00
2023-05-09T20:15:36.431Z,99.00
2023-05-09T20:18:06.989Z,99.90
2023-05-09T20:20:34.854Z,99.90
2023-05-09T20:23:04.042Z,99.90
2023-05-09T20:25:31.725Z,99.90
2023-05-09T20:27:59.500Z,99.90
2023-05-09T20:30:27.299Z,99.90
2023-05-09T20:32:55.211Z,99.90
2023-05-09T20:35:23.198Z,99.90
2023-05-09T20:37:50.965Z,99.90
2023-05-09T20:40:20.197Z,99.90
2023-05-09T20:42:47.892Z,99.90
2023-05-09T20:45:15.634Z,99.90
2023-05-09T20:47:43.368Z,99.90
2023-05-09T20:50:11.581Z,99.90
2023-05-09T20:52:39.348Z,99.90
2023-05-09T20:55:07.630Z,99.90
2023-05-09T20:57:36.706Z,99.90
2023-05-09T21:00:07.507Z,99.90
2023-05-09T21:02:35.391Z,99.90
2023-05-09T21:05:03.797Z,99.90
2023-05-09T21:07:31.513Z,99.90
2023-05-09T21:09:59.338Z,99.90
2023-05-09T21:12:27.440Z,99.90
2023-05-09T21:14:56.456Z,99.90
2023-05-09T21:17:24.177Z,99.90
2023-05-09T21:19:52.279Z,99.90
2023-05-09T21:22:20.028Z,99.90
2023-05-09T21:24:47.711Z,99.90
2023-05-09T21:27:15.395Z,99.90
2023-05-09T21:29:43.173Z,99.90
2023-05-09T21:32:12.203Z,99.90
2023-05-09T21:34:39.903Z,99.90
2023-05-09T21:37:07.589Z,99.90
2023-05-09T21:39:35.267Z,99.90
2023-05-09T21:42:02.986Z,99.90
2023-05-09T21:44:30.732Z,99.90
2023-05-09T21:46:58.518Z,99.90
2023-05-09T21:49:28.235Z,99.90
2023-05-09T21:51:55.963Z,99.90
2023-05-09T21:54:23.712Z,99.90
2023-05-09T21:56:51.415Z,99.90
2023-05-09T21:59:20.816Z,99.90
2023-05-09T22:01:48.697Z,99.90
2023-05-09T22:04:16.711Z,99.90
2023-05-09T22:06:45.726Z,99.90
2023-05-09T22:09:13.449Z,99.90
2023-05-09T22:11:41.202Z,99.90
2023-05-09T22:14:10.243Z,99.90
2023-05-09T22:16:38.388Z,99.90
2023-05-09T22:19:06.182Z,99.90
2023-05-09T22:21:33.866Z,99.90
2023-05-09T22:24:02.979Z,99.90
2023-05-09T22:26:30.787Z,99.90
2023-05-09T22:28:58.519Z,99.90
2023-05-09T22:31:26.256Z,99.90
2023-05-09T22:33:53.956Z,99.90
2023-05-09T22:36:21.808Z,99.90
2023-05-09T22:38:49.525Z,99.90
2023-05-09T22:41:18.592Z,99.90
2023-05-09T22:43:46.328Z,99.90
2023-05-09T22:46:14.010Z,99.90
2023-05-09T22:48:41.733Z,99.90
2023-05-09T22:51:09.589Z,99.90
2023-05-09T22:53:37.384Z,99.90
2023-05-09T22:56:05.791Z,99.90
2023-05-09T22:58:34.829Z,99.90
2023-05-09T23:01:02.581Z,99.90
2023-05-09T23:03:30.601Z,99.90
2023-05-09T23:05:58.341Z,99.90
2023-05-09T23:08:26.125Z,99.90
2023-05-09T23:10:53.939Z,99.90
2023-05-09T23:13:22.307Z,99.90
2023-05-09T23:15:52.005Z,99.90
2023-05-09T23:18:21.042Z,99.90
2023-05-09T23:20:48.751Z,99.90
2023-05-09T23:23:16.478Z,99.90
2023-05-09T23:25:44.393Z,99.90
2023-05-09T23:28:12.128Z,99.90
2023-05-09T23:30:39.793Z,99.90
2023-05-09T23:33:08.885Z,99.90
2023-05-09T23:35:36.586Z,99.90
2023-05-09T23:38:04.787Z,99.90
2023-05-09T23:40:32.522Z,99.90
2023-05-09T23:43:00.271Z,99.90
2023-05-09T23:45:28.247Z,99.90
2023-05-09T23:47:57.182Z,99.90
2023-05-09T23:50:26.282Z,99.90
2023-05-09T23:52:54.046Z,99.90
2023-05-09T23:55:21.815Z,99.90
2023-05-09T23:57:49.579Z,99.90
